sensor_id;sensor_type;location;lat;lon;timestamp;temperature;humidity
38500;DHT22;24269;51.894;4.622;2022-09-13T00:00:31;19.40;99.90
38500;DHT22;24269;51.894;4.622;2022-09-13T00:02:57;19.40;99.90
38500;DHT22;24269;51.894;4.622;2022-09-13T00:05:23;19.40;99.90
38500;DHT22;24269;51.894;4.622;2022-09-13T00:07:49;19.40;99.90
38500;DHT22;24269;51.894;4.622;2022-09-13T00:10:15;19.40;99.90
38500;DHT22;24269;51.894;4.622;2022-09-13T00:12:41;19.40;99.90
38500;DHT22;24269;51.894;4.622;2022-09-13T00:15:06;19.40;99.90
38500;DHT22;24269;51.894;4.622;2022-09-13T00:17:33;19.30;99.90
38500;DHT22;24269;51.894;4.622;2022-09-13T00:19:59;19.30;99.90
38500;DHT22;24269;51.894;4.622;2022-09-13T00:22:26;19.30;99.90
38500;DHT22;24269;51.894;4.622;2022-09-13T00:24:52;19.20;99.90
38500;DHT22;24269;51.894;4.622;2022-09-13T00:27:18;19.20;99.90
38500;DHT22;24269;51.894;4.622;2022-09-13T00:29:43;19.20;99.90
38500;DHT22;24269;51.894;4.622;2022-09-13T00:32:09;19.20;99.90
38500;DHT22;24269;51.894;4.622;2022-09-13T00:34:35;19.20;99.90
38500;DHT22;24269;51.894;4.622;2022-09-13T00:37:00;19.10;99.90
38500;DHT22;24269;51.894;4.622;2022-09-13T00:39:26;19.10;99.90
38500;DHT22;24269;51.894;4.622;2022-09-13T00:41:51;19.10;99.90
38500;DHT22;24269;51.894;4.622;2022-09-13T00:47:20;19.10;99.90
38500;DHT22;24269;51.894;4.622;2022-09-13T00:49:50;19.10;99.90
38500;DHT22;24269;51.894;4.622;2022-09-13T00:52:20;19.10;99.90
38500;DHT22;24269;51.894;4.622;2022-09-13T00:55:11;19.10;99.90
38500;DHT22;24269;51.894;4.622;2022-09-13T00:57:38;19.10;99.90
38500;DHT22;24269;51.894;4.622;2022-09-13T01:00:11;19.20;99.90
38500;DHT22;24269;51.894;4.622;2022-09-13T01:02:46;19.20;99.90
38500;DHT22;24269;51.894;4.622;2022-09-13T01:05:14;19.20;99.90
38500;DHT22;24269;51.894;4.622;2022-09-13T01:07:41;19.20;99.90
38500;DHT22;24269;51.894;4.622;2022-09-13T01:10:08;19.20;99.90
38500;DHT22;24269;51.894;4.622;2022-09-13T01:15:22;19.30;99.90
38500;DHT22;24269;51.894;4.622;2022-09-13T01:17:50;19.20;99.90
38500;DHT22;24269;51.894;4.622;2022-09-13T01:20:16;19.20;99.90
38500;DHT22;24269;51.894;4.622;2022-09-13T01:31:43;19.20;99.90
38500;DHT22;24269;51.894;4.622;2022-09-13T01:34:43;19.20;99.90
38500;DHT22;24269;51.894;4.622;2022-09-13T01:51:27;19.20;99.90
38500;DHT22;24269;51.894;4.622;2022-09-13T01:56:42;19.10;99.90
38500;DHT22;24269;51.894;4.622;2022-09-13T01:59:15;19.10;99.90
38500;DHT22;24269;51.894;4.622;2022-09-13T02:01:54;19.10;99.90
38500;DHT22;24269;51.894;4.622;2022-09-13T02:04:26;19.10;99.90
38500;DHT22;24269;51.894;4.622;2022-09-13T02:07:01;19.10;99.90
38500;DHT22;24269;51.894;4.622;2022-09-13T02:09:32;19.10;99.90
38500;DHT22;24269;51.894;4.622;2022-09-13T02:12:08;19.10;99.90
38500;DHT22;24269;51.894;4.622;2022-09-13T02:14:38;19.00;99.90
38500;DHT22;24269;51.894;4.622;2022-09-13T02:17:14;19.00;99.90
38500;DHT22;24269;51.894;4.622;2022-09-13T02:19:48;19.00;99.90
38500;DHT22;24269;51.894;4.622;2022-09-13T02:22:20;19.00;99.90
38500;DHT22;24269;51.894;4.622;2022-09-13T02:24:52;19.00;99.90
38500;DHT22;24269;51.894;4.622;2022-09-13T02:27:23;19.00;99.90
38500;DHT22;24269;51.894;4.622;2022-09-13T02:29:53;19.00;99.90
38500;DHT22;24269;51.894;4.622;2022-09-13T02:33:11;18.90;99.90
38500;DHT22;24269;51.894;4.622;2022-09-13T02:35:25;18.90;99.90
38500;DHT22;24269;51.894;4.622;2022-09-13T02:37:57;18.90;99.90
38500;DHT22;24269;51.894;4.622;2022-09-13T02:40:27;18.90;99.90
38500;DHT22;24269;51.894;4.622;2022-09-13T02:43:01;18.90;99.90
38500;DHT22;24269;51.894;4.622;2022-09-13T02:45:35;18.90;99.90
38500;DHT22;24269;51.894;4.622;2022-09-13T02:48:25;18.90;99.90
38500;DHT22;24269;51.894;4.622;2022-09-13T02:51:12;18.90;99.90
38500;DHT22;24269;51.894;4.622;2022-09-13T02:59:15;18.90;99.90
38500;DHT22;24269;51.894;4.622;2022-09-13T03:01:48;18.90;99.90
38500;DHT22;24269;51.894;4.622;2022-09-13T03:04:15;18.90;99.90
38500;DHT22;24269;51.894;4.622;2022-09-13T03:06:40;18.90;99.90
38500;DHT22;24269;51.894;4.622;2022-09-13T03:09:07;18.90;99.90
38500;DHT22;24269;51.894;4.622;2022-09-13T03:16:56;18.80;99.90
38500;DHT22;24269;51.894;4.622;2022-09-13T03:19:45;18.90;99.90
38500;DHT22;24269;51.894;4.622;2022-09-13T03:22:32;18.80;99.90
38500;DHT22;24269;51.894;4.622;2022-09-13T03:28:25;18.80;99.90
38500;DHT22;24269;51.894;4.622;2022-09-13T03:31:09;18.80;99.90
38500;DHT22;24269;51.894;4.622;2022-09-13T03:33:45;18.80;99.90
38500;DHT22;24269;51.894;4.622;2022-09-13T03:36:19;18.80;99.90
38500;DHT22;24269;51.894;4.622;2022-09-13T03:41:29;18.80;99.90
38500;DHT22;24269;51.894;4.622;2022-09-13T03:43:58;18.80;99.90
38500;DHT22;24269;51.894;4.622;2022-09-13T03:48:53;18.80;99.90
38500;DHT22;24269;51.894;4.622;2022-09-13T03:51:20;18.80;99.90
38500;DHT22;24269;51.894;4.622;2022-09-13T03:53:53;18.80;99.90
38500;DHT22;24269;51.894;4.622;2022-09-13T03:56:21;18.80;99.90
38500;DHT22;24269;51.894;4.622;2022-09-13T03:58:47;18.80;99.90
38500;DHT22;24269;51.894;4.622;2022-09-13T04:01:13;18.80;99.90
38500;DHT22;24269;51.894;4.622;2022-09-13T04:03:39;18.80;99.90
38500;DHT22;24269;51.894;4.622;2022-09-13T04:06:05;18.80;99.90
38500;DHT22;24269;51.894;4.622;2022-09-13T04:08:31;18.80;99.90
38500;DHT22;24269;51.894;4.622;2022-09-13T04:10:57;18.80;99.90
38500;DHT22;24269;51.894;4.622;2022-09-13T04:13:23;18.80;99.90
38500;DHT22;24269;51.894;4.622;2022-09-13T04:15:49;18.80;99.90
38500;DHT22;24269;51.894;4.622;2022-09-13T04:18:15;18.80;99.90
38500;DHT22;24269;51.894;4.622;2022-09-13T04:20:41;18.80;99.90
38500;DHT22;24269;51.894;4.622;2022-09-13T04:23:07;18.80;99.90
38500;DHT22;24269;51.894;4.622;2022-09-13T04:25:33;18.70;99.90
38500;DHT22;24269;51.894;4.622;2022-09-13T04:27:58;18.70;99.90
38500;DHT22;24269;51.894;4.622;2022-09-13T04:30:25;18.70;99.90
38500;DHT22;24269;51.894;4.622;2022-09-13T04:32:50;18.80;99.90
38500;DHT22;24269;51.894;4.622;2022-09-13T04:35:17;18.70;99.90
38500;DHT22;24269;51.894;4.622;2022-09-13T04:37:44;18.70;99.90
38500;DHT22;24269;51.894;4.622;2022-09-13T04:40:10;18.70;99.90
38500;DHT22;24269;51.894;4.622;2022-09-13T04:42:36;18.70;99.90
38500;DHT22;24269;51.894;4.622;2022-09-13T04:45:03;18.70;99.90
38500;DHT22;24269;51.894;4.622;2022-09-13T04:47:29;18.60;99.90
38500;DHT22;24269;51.894;4.622;2022-09-13T04:49:55;18.60;99.90
38500;DHT22;24269;51.894;4.622;2022-09-13T04:52:21;18.60;99.90
38500;DHT22;24269;51.894;4.622;2022-09-13T04:54:46;18.60;99.90
38500;DHT22;24269;51.894;4.622;2022-09-13T04:57:13;18.50;99.90
38500;DHT22;24269;51.894;4.622;2022-09-13T04:59:39;18.50;99.90
38500;DHT22;24269;51.894;4.622;2022-09-13T05:02:05;18.40;99.90
38500;DHT22;24269;51.894;4.622;2022-09-13T05:04:30;18.40;99.90
38500;DHT22;24269;51.894;4.622;2022-09-13T05:06:56;18.40;99.90
38500;DHT22;24269;51.894;4.622;2022-09-13T05:09:23;18.40;99.90
38500;DHT22;24269;51.894;4.622;2022-09-13T05:11:49;18.50;99.90
38500;DHT22;24269;51.894;4.622;2022-09-13T05:14:15;18.40;99.90
38500;DHT22;24269;51.894;4.622;2022-09-13T05:16:40;18.50;99.90
38500;DHT22;24269;51.894;4.622;2022-09-13T05:19:06;18.40;99.90
38500;DHT22;24269;51.894;4.622;2022-09-13T05:21:32;18.50;99.90
38500;DHT22;24269;51.894;4.622;2022-09-13T05:23:58;18.40;99.90
38500;DHT22;24269;51.894;4.622;2022-09-13T05:26:25;18.40;99.90
38500;DHT22;24269;51.894;4.622;2022-09-13T05:28:52;18.40;99.90
38500;DHT22;24269;51.894;4.622;2022-09-13T05:31:19;18.40;99.90
38500;DHT22;24269;51.894;4.622;2022-09-13T05:33:46;18.40;99.90
38500;DHT22;24269;51.894;4.622;2022-09-13T05:36:12;18.40;99.90
38500;DHT22;24269;51.894;4.622;2022-09-13T05:38:38;18.40;99.90
38500;DHT22;24269;51.894;4.622;2022-09-13T05:41:04;18.30;99.90
38500;DHT22;24269;51.894;4.622;2022-09-13T05:43:33;18.30;99.90
38500;DHT22;24269;51.894;4.622;2022-09-13T05:46:10;18.30;99.90
38500;DHT22;24269;51.894;4.622;2022-09-13T05:48:36;18.30;99.90
38500;DHT22;24269;51.894;4.622;2022-09-13T05:51:13;18.30;99.90
38500;DHT22;24269;51.894;4.622;2022-09-13T05:53:40;18.30;99.90
38500;DHT22;24269;51.894;4.622;2022-09-13T05:56:08;18.30;99.90
38500;DHT22;24269;51.894;4.622;2022-09-13T05:58:37;18.30;99.90
38500;DHT22;24269;51.894;4.622;2022-09-13T06:01:04;18.30;99.90
38500;DHT22;24269;51.894;4.622;2022-09-13T06:03:29;18.30;99.90
38500;DHT22;24269;51.894;4.622;2022-09-13T06:05:56;18.30;99.90
38500;DHT22;24269;51.894;4.622;2022-09-13T06:08:24;18.30;99.90
38500;DHT22;24269;51.894;4.622;2022-09-13T06:11:01;18.30;99.90
38500;DHT22;24269;51.894;4.622;2022-09-13T06:13:27;18.40;99.90
38500;DHT22;24269;51.894;4.622;2022-09-13T06:15:54;18.40;99.90
38500;DHT22;24269;51.894;4.622;2022-09-13T06:18:21;18.40;99.90
38500;DHT22;24269;51.894;4.622;2022-09-13T06:20:46;18.40;99.90
38500;DHT22;24269;51.894;4.622;2022-09-13T06:23:13;18.40;99.90
38500;DHT22;24269;51.894;4.622;2022-09-13T06:25:39;18.50;99.90
38500;DHT22;24269;51.894;4.622;2022-09-13T06:28:04;18.50;99.90
38500;DHT22;24269;51.894;4.622;2022-09-13T06:30:30;18.50;99.90
38500;DHT22;24269;51.894;4.622;2022-09-13T06:32:56;18.60;99.90
38500;DHT22;24269;51.894;4.622;2022-09-13T06:35:22;18.70;99.90
38500;DHT22;24269;51.894;4.622;2022-09-13T06:37:48;18.70;99.90
38500;DHT22;24269;51.894;4.622;2022-09-13T06:40:13;18.80;99.90
38500;DHT22;24269;51.894;4.622;2022-09-13T06:42:39;18.90;99.90
38500;DHT22;24269;51.894;4.622;2022-09-13T06:45:05;18.90;99.90
38500;DHT22;24269;51.894;4.622;2022-09-13T06:47:31;19.00;99.90
38500;DHT22;24269;51.894;4.622;2022-09-13T06:49:57;19.00;99.90
38500;DHT22;24269;51.894;4.622;2022-09-13T06:52:23;19.10;99.90
38500;DHT22;24269;51.894;4.622;2022-09-13T06:54:49;19.30;99.90
38500;DHT22;24269;51.894;4.622;2022-09-13T06:57:15;19.40;99.90
38500;DHT22;24269;51.894;4.622;2022-09-13T06:59:41;19.50;99.90
38500;DHT22;24269;51.894;4.622;2022-09-13T07:02:09;19.60;99.90
38500;DHT22;24269;51.894;4.622;2022-09-13T07:04:35;19.70;99.90
38500;DHT22;24269;51.894;4.622;2022-09-13T07:07:00;19.80;99.90
38500;DHT22;24269;51.894;4.622;2022-09-13T07:09:26;19.90;99.90
38500;DHT22;24269;51.894;4.622;2022-09-13T07:11:54;20.00;99.90
38500;DHT22;24269;51.894;4.622;2022-09-13T07:14:22;20.00;99.90
38500;DHT22;24269;51.894;4.622;2022-09-13T07:16:48;20.10;99.90
38500;DHT22;24269;51.894;4.622;2022-09-13T07:19:18;20.20;99.90
38500;DHT22;24269;51.894;4.622;2022-09-13T07:21:44;20.20;99.90
38500;DHT22;24269;51.894;4.622;2022-09-13T07:24:10;20.20;99.90
38500;DHT22;24269;51.894;4.622;2022-09-13T07:26:37;20.30;99.90
38500;DHT22;24269;51.894;4.622;2022-09-13T07:29:08;20.30;99.90
38500;DHT22;24269;51.894;4.622;2022-09-13T07:31:36;20.40;99.90
38500;DHT22;24269;51.894;4.622;2022-09-13T07:34:05;20.50;99.90
38500;DHT22;24269;51.894;4.622;2022-09-13T07:36:32;20.60;99.90
38500;DHT22;24269;51.894;4.622;2022-09-13T07:38:58;20.70;99.90
38500;DHT22;24269;51.894;4.622;2022-09-13T07:41:25;20.80;99.90
38500;DHT22;24269;51.894;4.622;2022-09-13T07:43:52;20.90;99.90
38500;DHT22;24269;51.894;4.622;2022-09-13T07:46:20;21.00;99.90
38500;DHT22;24269;51.894;4.622;2022-09-13T07:48:46;21.10;99.90
38500;DHT22;24269;51.894;4.622;2022-09-13T07:51:21;21.20;99.90
38500;DHT22;24269;51.894;4.622;2022-09-13T07:53:48;21.20;99.90
38500;DHT22;24269;51.894;4.622;2022-09-13T07:56:16;21.30;99.90
38500;DHT22;24269;51.894;4.622;2022-09-13T07:58:43;21.40;99.90
38500;DHT22;24269;51.894;4.622;2022-09-13T08:03:55;21.60;99.90
38500;DHT22;24269;51.894;4.622;2022-09-13T08:06:23;21.70;99.90
38500;DHT22;24269;51.894;4.622;2022-09-13T08:08:49;21.80;99.90
38500;DHT22;24269;51.894;4.622;2022-09-13T08:11:45;22.00;99.90
38500;DHT22;24269;51.894;4.622;2022-09-13T08:14:13;22.20;99.90
38500;DHT22;24269;51.894;4.622;2022-09-13T08:16:39;22.20;99.90
38500;DHT22;24269;51.894;4.622;2022-09-13T08:19:06;22.20;99.90
38500;DHT22;24269;51.894;4.622;2022-09-13T08:21:37;22.20;99.90
38500;DHT22;24269;51.894;4.622;2022-09-13T08:24:04;22.20;99.90
38500;DHT22;24269;51.894;4.622;2022-09-13T08:26:31;22.00;99.90
38500;DHT22;24269;51.894;4.622;2022-09-13T08:28:59;21.80;99.90
38500;DHT22;24269;51.894;4.622;2022-09-13T08:31:26;21.60;99.90
38500;DHT22;24269;51.894;4.622;2022-09-13T08:33:52;21.50;99.90
38500;DHT22;24269;51.894;4.622;2022-09-13T08:36:18;21.50;99.90
38500;DHT22;24269;51.894;4.622;2022-09-13T08:38:48;21.50;99.90
38500;DHT22;24269;51.894;4.622;2022-09-13T08:41:47;21.50;99.90
38500;DHT22;24269;51.894;4.622;2022-09-13T08:44:43;21.60;99.90
38500;DHT22;24269;51.894;4.622;2022-09-13T09:01:06;22.10;99.90
38500;DHT22;24269;51.894;4.622;2022-09-13T09:03:47;22.10;99.90
38500;DHT22;24269;51.894;4.622;2022-09-13T09:06:16;22.10;99.90
38500;DHT22;24269;51.894;4.622;2022-09-13T09:08:53;22.20;99.90
38500;DHT22;24269;51.894;4.622;2022-09-13T09:14:11;22.30;99.90
38500;DHT22;24269;51.894;4.622;2022-09-13T09:16:53;22.50;99.90
38500;DHT22;24269;51.894;4.622;2022-09-13T09:19:31;22.70;99.90
38500;DHT22;24269;51.894;4.622;2022-09-13T09:22:01;22.90;99.90
38500;DHT22;24269;51.894;4.622;2022-09-13T09:24:33;22.90;99.90
38500;DHT22;24269;51.894;4.622;2022-09-13T09:27:01;22.70;99.90
38500;DHT22;24269;51.894;4.622;2022-09-13T09:29:32;22.60;99.90
38500;DHT22;24269;51.894;4.622;2022-09-13T09:37:30;22.30;99.90
38500;DHT22;24269;51.894;4.622;2022-09-13T09:40:04;22.40;99.90
38500;DHT22;24269;51.894;4.622;2022-09-13T09:42:41;22.50;99.90
38500;DHT22;24269;51.894;4.622;2022-09-13T09:47:51;23.00;99.90
38500;DHT22;24269;51.894;4.622;2022-09-13T09:50:30;23.30;99.90
38500;DHT22;24269;51.894;4.622;2022-09-13T09:53:03;23.40;99.90
38500;DHT22;24269;51.894;4.622;2022-09-13T09:55:51;23.40;99.90
38500;DHT22;24269;51.894;4.622;2022-09-13T09:58:42;23.40;99.90
38500;DHT22;24269;51.894;4.622;2022-09-13T10:03:35;23.40;99.90
38500;DHT22;24269;51.894;4.622;2022-09-13T10:06:21;23.60;99.90
38500;DHT22;24269;51.894;4.622;2022-09-13T10:09:00;23.80;99.90
38500;DHT22;24269;51.894;4.622;2022-09-13T10:14:38;23.90;99.90
38500;DHT22;24269;51.894;4.622;2022-09-13T10:17:15;24.00;99.90
38500;DHT22;24269;51.894;4.622;2022-09-13T10:22:37;24.00;99.90
38500;DHT22;24269;51.894;4.622;2022-09-13T10:25:21;23.80;99.90
38500;DHT22;24269;51.894;4.622;2022-09-13T10:27:50;23.80;99.90
38500;DHT22;24269;51.894;4.622;2022-09-13T10:32:54;23.60;99.90
38500;DHT22;24269;51.894;4.622;2022-09-13T10:35:20;23.60;99.90
38500;DHT22;24269;51.894;4.622;2022-09-13T10:37:47;23.70;99.90
38500;DHT22;24269;51.894;4.622;2022-09-13T10:40:18;23.80;99.90
38500;DHT22;24269;51.894;4.622;2022-09-13T10:42:57;23.70;99.90
38500;DHT22;24269;51.894;4.622;2022-09-13T10:45:26;23.60;99.90
38500;DHT22;24269;51.894;4.622;2022-09-13T10:50:28;23.30;99.90
38500;DHT22;24269;51.894;4.622;2022-09-13T10:52:59;23.20;99.90
38500;DHT22;24269;51.894;4.622;2022-09-13T10:55:29;23.20;99.90
38500;DHT22;24269;51.894;4.622;2022-09-13T11:00:38;23.20;99.90
38500;DHT22;24269;51.894;4.622;2022-09-13T11:31:20;23.60;99.90
38500;DHT22;24269;51.894;4.622;2022-09-13T11:34:22;23.80;99.90
38500;DHT22;24269;51.894;4.622;2022-09-13T11:37:29;23.90;99.90
38500;DHT22;24269;51.894;4.622;2022-09-13T11:42:56;24.10;99.90
38500;DHT22;24269;51.894;4.622;2022-09-13T11:45:27;24.10;99.90
38500;DHT22;24269;51.894;4.622;2022-09-13T11:51:13;24.10;99.90
38500;DHT22;24269;51.894;4.622;2022-09-13T11:57:02;24.00;99.90
38500;DHT22;24269;51.894;4.622;2022-09-13T12:02:13;23.90;99.90
38500;DHT22;24269;51.894;4.622;2022-09-13T12:04:53;23.90;99.90
38500;DHT22;24269;51.894;4.622;2022-09-13T12:07:49;24.00;99.90
38500;DHT22;24269;51.894;4.622;2022-09-13T12:10:25;24.30;99.90
38500;DHT22;24269;51.894;4.622;2022-09-13T12:12:53;24.40;99.90
38500;DHT22;24269;51.894;4.622;2022-09-13T12:15:31;24.60;99.90
38500;DHT22;24269;51.894;4.622;2022-09-13T12:20:46;25.10;99.90
38500;DHT22;24269;51.894;4.622;2022-09-13T12:23:30;25.10;99.90
38500;DHT22;24269;51.894;4.622;2022-09-13T12:28:35;24.90;99.90
38500;DHT22;24269;51.894;4.622;2022-09-13T12:31:09;25.00;99.90
38500;DHT22;24269;51.894;4.622;2022-09-13T12:33:42;25.10;99.90
38500;DHT22;24269;51.894;4.622;2022-09-13T12:41:45;25.60;99.90
38500;DHT22;24269;51.894;4.622;2022-09-13T12:52:50;26.00;99.90
38500;DHT22;24269;51.894;4.622;2022-09-13T12:58:19;25.90;99.90
38500;DHT22;24269;51.894;4.622;2022-09-13T13:03:28;25.30;99.90
38500;DHT22;24269;51.894;4.622;2022-09-13T13:06:25;25.20;99.90
38500;DHT22;24269;51.894;4.622;2022-09-13T13:08:56;25.30;99.90
38500;DHT22;24269;51.894;4.622;2022-09-13T13:11:27;25.40;99.90
38500;DHT22;24269;51.894;4.622;2022-09-13T13:14:01;25.70;99.90
38500;DHT22;24269;51.894;4.622;2022-09-13T13:16:36;25.70;99.90
38500;DHT22;24269;51.894;4.622;2022-09-13T13:19:25;25.90;99.90
38500;DHT22;24269;51.894;4.622;2022-09-13T13:21:53;26.00;99.90
38500;DHT22;24269;51.894;4.622;2022-09-13T13:26:50;26.20;99.90
38500;DHT22;24269;51.894;4.622;2022-09-13T13:34:34;26.10;99.90
38500;DHT22;24269;51.894;4.622;2022-09-13T13:37:24;26.20;99.90
38500;DHT22;24269;51.894;4.622;2022-09-13T13:40:11;26.40;99.90
38500;DHT22;24269;51.894;4.622;2022-09-13T13:42:44;26.50;99.90
38500;DHT22;24269;51.894;4.622;2022-09-13T13:45:18;26.70;99.90
38500;DHT22;24269;51.894;4.622;2022-09-13T13:48:07;26.60;99.90
38500;DHT22;24269;51.894;4.622;2022-09-13T13:50:34;26.50;99.90
38500;DHT22;24269;51.894;4.622;2022-09-13T13:53:20;26.50;99.90
38500;DHT22;24269;51.894;4.622;2022-09-13T13:55:48;26.70;99.90
38500;DHT22;24269;51.894;4.622;2022-09-13T14:00:54;26.60;99.90
38500;DHT22;24269;51.894;4.622;2022-09-13T14:06:16;26.70;99.90
38500;DHT22;24269;51.894;4.622;2022-09-13T14:19:44;25.80;99.90
38500;DHT22;24269;51.894;4.622;2022-09-13T14:22:19;25.70;99.90
38500;DHT22;24269;51.894;4.622;2022-09-13T14:24:51;25.40;99.90
38500;DHT22;24269;51.894;4.622;2022-09-13T14:30:01;24.90;99.90
38500;DHT22;24269;51.894;4.622;2022-09-13T14:32:31;24.70;99.90
38500;DHT22;24269;51.894;4.622;2022-09-13T14:35:05;24.60;99.90
38500;DHT22;24269;51.894;4.622;2022-09-13T14:37:36;24.80;99.90
38500;DHT22;24269;51.894;4.622;2022-09-13T14:42:42;25.90;99.90
38500;DHT22;24269;51.894;4.622;2022-09-13T14:45:24;26.70;99.90
38500;DHT22;24269;51.894;4.622;2022-09-13T14:48:06;27.20;99.90
38500;DHT22;24269;51.894;4.622;2022-09-13T14:50:41;27.10;99.90
38500;DHT22;24269;51.894;4.622;2022-09-13T14:53:21;27.00;99.90
38500;DHT22;24269;51.894;4.622;2022-09-13T14:56:12;26.80;99.90
38500;DHT22;24269;51.894;4.622;2022-09-13T14:58:46;27.10;99.90
38500;DHT22;24269;51.894;4.622;2022-09-13T15:01:18;27.00;99.90
38500;DHT22;24269;51.894;4.622;2022-09-13T15:03:49;26.80;99.90
38500;DHT22;24269;51.894;4.622;2022-09-13T15:06:27;26.30;99.90
38500;DHT22;24269;51.894;4.622;2022-09-13T15:09:12;25.90;99.90
38500;DHT22;24269;51.894;4.622;2022-09-13T15:11:57;25.60;99.90
38500;DHT22;24269;51.894;4.622;2022-09-13T15:14:28;25.20;99.90
38500;DHT22;24269;51.894;4.622;2022-09-13T15:17:11;24.90;99.90
38500;DHT22;24269;51.894;4.622;2022-09-13T15:19:49;24.50;99.90
38500;DHT22;24269;51.894;4.622;2022-09-13T15:22:22;24.30;99.90
38500;DHT22;24269;51.894;4.622;2022-09-13T15:24:53;24.00;99.90
38500;DHT22;24269;51.894;4.622;2022-09-13T15:27:42;23.80;99.90
38500;DHT22;24269;51.894;4.622;2022-09-13T15:35:40;23.10;99.90
38500;DHT22;24269;51.894;4.622;2022-09-13T15:38:21;23.10;99.90
38500;DHT22;24269;51.894;4.622;2022-09-13T15:40:59;23.10;99.90
38500;DHT22;24269;51.894;4.622;2022-09-13T15:43:29;23.10;99.90
38500;DHT22;24269;51.894;4.622;2022-09-13T15:45:57;23.10;99.90
38500;DHT22;24269;51.894;4.622;2022-09-13T15:48:31;23.10;99.90
38500;DHT22;24269;51.894;4.622;2022-09-13T15:51:07;23.00;99.90
38500;DHT22;24269;51.894;4.622;2022-09-13T15:53:34;22.90;99.90
38500;DHT22;24269;51.894;4.622;2022-09-13T15:56:01;22.70;99.90
38500;DHT22;24269;51.894;4.622;2022-09-13T15:58:28;22.60;99.90
38500;DHT22;24269;51.894;4.622;2022-09-13T16:00:53;22.50;99.90
38500;DHT22;24269;51.894;4.622;2022-09-13T16:03:19;22.40;99.90
38500;DHT22;24269;51.894;4.622;2022-09-13T16:05:47;22.40;99.90
38500;DHT22;24269;51.894;4.622;2022-09-13T16:08:16;22.30;99.90
38500;DHT22;24269;51.894;4.622;2022-09-13T16:10:42;22.20;99.90
38500;DHT22;24269;51.894;4.622;2022-09-13T16:13:07;22.00;99.90
38500;DHT22;24269;51.894;4.622;2022-09-13T16:15:33;21.90;99.90
38500;DHT22;24269;51.894;4.622;2022-09-13T16:17:59;21.70;99.90
38500;DHT22;24269;51.894;4.622;2022-09-13T16:20:24;21.70;99.90
38500;DHT22;24269;51.894;4.622;2022-09-13T16:22:52;21.60;99.90
38500;DHT22;24269;51.894;4.622;2022-09-13T16:25:18;21.40;99.90
38500;DHT22;24269;51.894;4.622;2022-09-13T16:27:44;21.40;99.90
38500;DHT22;24269;51.894;4.622;2022-09-13T16:30:12;21.40;99.90
38500;DHT22;24269;51.894;4.622;2022-09-13T16:32:39;21.30;99.90
38500;DHT22;24269;51.894;4.622;2022-09-13T16:35:06;21.20;99.90
38500;DHT22;24269;51.894;4.622;2022-09-13T16:37:32;21.20;99.90
38500;DHT22;24269;51.894;4.622;2022-09-13T16:39:58;21.10;99.90
38500;DHT22;24269;51.894;4.622;2022-09-13T16:42:24;21.10;99.90
38500;DHT22;24269;51.894;4.622;2022-09-13T16:44:50;21.10;99.90
38500;DHT22;24269;51.894;4.622;2022-09-13T16:47:15;21.00;99.90
38500;DHT22;24269;51.894;4.622;2022-09-13T16:49:42;20.90;99.90
38500;DHT22;24269;51.894;4.622;2022-09-13T16:52:07;20.90;99.90
38500;DHT22;24269;51.894;4.622;2022-09-13T16:54:34;20.80;99.90
38500;DHT22;24269;51.894;4.622;2022-09-13T16:57:04;20.70;99.90
38500;DHT22;24269;51.894;4.622;2022-09-13T16:59:31;20.70;99.90
38500;DHT22;24269;51.894;4.622;2022-09-13T17:01:57;20.60;99.90
38500;DHT22;24269;51.894;4.622;2022-09-13T17:04:23;20.50;99.90
38500;DHT22;24269;51.894;4.622;2022-09-13T17:06:49;20.40;99.90
38500;DHT22;24269;51.894;4.622;2022-09-13T17:09:15;20.40;99.90
38500;DHT22;24269;51.894;4.622;2022-09-13T17:11:43;20.30;99.90
38500;DHT22;24269;51.894;4.622;2022-09-13T17:14:11;20.20;99.90
38500;DHT22;24269;51.894;4.622;2022-09-13T17:16:45;20.20;99.90
38500;DHT22;24269;51.894;4.622;2022-09-13T17:19:14;20.20;99.90
38500;DHT22;24269;51.894;4.622;2022-09-13T17:21:40;20.10;99.90
38500;DHT22;24269;51.894;4.622;2022-09-13T17:24:07;20.00;99.90
38500;DHT22;24269;51.894;4.622;2022-09-13T17:26:32;20.00;99.90
38500;DHT22;24269;51.894;4.622;2022-09-13T17:28:58;19.90;99.90
38500;DHT22;24269;51.894;4.622;2022-09-13T17:31:24;19.80;99.90
38500;DHT22;24269;51.894;4.622;2022-09-13T17:33:49;19.80;99.90
38500;DHT22;24269;51.894;4.622;2022-09-13T17:36:17;19.80;99.90
38500;DHT22;24269;51.894;4.622;2022-09-13T17:38:43;19.80;99.90
38500;DHT22;24269;51.894;4.622;2022-09-13T17:41:15;19.70;99.90
38500;DHT22;24269;51.894;4.622;2022-09-13T17:43:41;19.70;99.90
38500;DHT22;24269;51.894;4.622;2022-09-13T17:48:37;19.60;99.90
38500;DHT22;24269;51.894;4.622;2022-09-13T17:51:06;19.60;99.90
38500;DHT22;24269;51.894;4.622;2022-09-13T17:53:37;19.50;99.90
38500;DHT22;24269;51.894;4.622;2022-09-13T17:56:03;19.40;99.90
38500;DHT22;24269;51.894;4.622;2022-09-13T17:58:29;19.40;99.90
38500;DHT22;24269;51.894;4.622;2022-09-13T18:01:04;19.40;99.90
38500;DHT22;24269;51.894;4.622;2022-09-13T18:03:30;19.30;99.90
38500;DHT22;24269;51.894;4.622;2022-09-13T18:06:00;19.20;99.90
38500;DHT22;24269;51.894;4.622;2022-09-13T18:08:27;19.20;99.90
38500;DHT22;24269;51.894;4.622;2022-09-13T18:10:54;19.10;99.90
38500;DHT22;24269;51.894;4.622;2022-09-13T18:13:20;19.10;99.90
38500;DHT22;24269;51.894;4.622;2022-09-13T18:16:00;19.00;99.90
38500;DHT22;24269;51.894;4.622;2022-09-13T18:18:26;19.00;99.90
38500;DHT22;24269;51.894;4.622;2022-09-13T18:20:52;19.00;99.90
38500;DHT22;24269;51.894;4.622;2022-09-13T18:23:17;19.00;99.90
38500;DHT22;24269;51.894;4.622;2022-09-13T18:25:43;18.90;99.90
38500;DHT22;24269;51.894;4.622;2022-09-13T18:28:10;18.90;99.90
38500;DHT22;24269;51.894;4.622;2022-09-13T18:30:35;18.90;99.90
38500;DHT22;24269;51.894;4.622;2022-09-13T18:33:01;18.90;99.90
38500;DHT22;24269;51.894;4.622;2022-09-13T18:35:26;18.80;99.90
38500;DHT22;24269;51.894;4.622;2022-09-13T18:37:52;18.80;99.90
38500;DHT22;24269;51.894;4.622;2022-09-13T18:40:18;18.80;99.90
38500;DHT22;24269;51.894;4.622;2022-09-13T18:42:43;18.80;99.90
38500;DHT22;24269;51.894;4.622;2022-09-13T18:45:09;18.80;99.90
38500;DHT22;24269;51.894;4.622;2022-09-13T18:47:35;18.80;99.90
38500;DHT22;24269;51.894;4.622;2022-09-13T18:50:01;18.70;99.90
38500;DHT22;24269;51.894;4.622;2022-09-13T18:52:27;18.70;99.90
38500;DHT22;24269;51.894;4.622;2022-09-13T18:54:52;18.70;99.90
38500;DHT22;24269;51.894;4.622;2022-09-13T18:57:18;18.70;99.90
38500;DHT22;24269;51.894;4.622;2022-09-13T18:59:44;18.70;99.90
38500;DHT22;24269;51.894;4.622;2022-09-13T19:02:10;18.70;99.90
38500;DHT22;24269;51.894;4.622;2022-09-13T19:04:39;18.70;99.90
38500;DHT22;24269;51.894;4.622;2022-09-13T19:07:05;18.70;99.90